Time;durP1;ratioP1;P1;durP2;ratioP2;P2;SDS_P1;SDS_P2;PMS_P1;PMS_P2;Temp;Humidity;BMP_temperature;BMP_pressure;BME280_temperature;BME280_humidity;BME280_pressure;Samples;Min_cycle;Max_cycle;Signal;HPM_P1;HPM_P2
2023/12/04 00:00:26;;;;;;;0.20;0.20;;;0.90;92.30;;;;;;5026176;28;20037;-75
2023/12/04 00:02:51;;;;;;;0.38;0.38;;;0.90;92.40;;;;;;5007598;28;20404;-76
2023/12/04 00:05:17;;;;;;;0.00;0.00;;;0.90;92.40;;;;;;5026241;28;20056;-76
2023/12/04 00:07:42;;;;;;;1.35;0.82;;;0.90;92.40;;;;;;5007902;28;20546;-76
2023/12/04 00:10:08;;;;;;;0.00;0.00;;;0.90;92.50;;;;;;5007781;28;20446;-76
2023/12/04 00:12:34;;;;;;;0.22;0.22;;;0.90;92.50;;;;;;5027888;28;20062;-75
2023/12/04 00:15:00;;;;;;;0.00;0.00;;;0.90;92.50;;;;;;5025592;28;20699;-75
2023/12/04 00:17:25;;;;;;;0.20;0.20;;;0.90;92.60;;;;;;5007543;28;20042;-76
2023/12/04 00:19:51;;;;;;;0.00;0.00;;;0.90;92.60;;;;;;5018495;28;20079;-75
2023/12/04 00:22:16;;;;;;;0.10;0.10;;;0.90;92.80;;;;;;5005658;28;20120;-75
2023/12/04 00:24:42;;;;;;;0.15;0.15;;;0.80;92.80;;;;;;5025178;28;20042;-76
2023/12/04 00:27:07;;;;;;;0.00;0.00;;;0.90;92.60;;;;;;5025066;28;20041;-75
2023/12/04 00:29:33;;;;;;;2.50;1.20;;;0.90;92.70;;;;;;5022443;28;20500;-75
2023/12/04 00:31:59;;;;;;;0.00;0.00;;;0.80;92.70;;;;;;5025090;28;20091;-75
2023/12/04 00:34:24;;;;;;;0.10;0.10;;;0.80;92.70;;;;;;5027280;28;20158;-76
2023/12/04 00:36:50;;;;;;;0.00;0.00;;;0.80;92.90;;;;;;5027124;28;20526;-76
2023/12/04 00:39:16;;;;;;;0.38;0.30;;;0.80;93.00;;;;;;5027336;28;20045;-76
2023/12/04 00:41:41;;;;;;;0.00;0.00;;;0.80;93.00;;;;;;5027657;28;20052;-77
2023/12/04 00:44:08;;;;;;;0.00;0.00;;;0.80;93.20;;;;;;5028318;28;20038;-76
2023/12/04 00:46:33;;;;;;;0.15;0.15;;;0.80;93.10;;;;;;5024404;28;20041;-76
2023/12/04 00:48:59;;;;;;;0.28;0.28;;;0.80;92.90;;;;;;5027887;28;20111;-76
2023/12/04 00:51:26;;;;;;;0.10;0.10;;;0.90;92.90;;;;;;5026914;28;20060;-76
2023/12/04 00:53:51;;;;;;;0.00;0.00;;;0.90;93.00;;;;;;5026337;28;20080;-75
2023/12/04 00:56:18;;;;;;;0.10;0.10;;;0.80;93.00;;;;;;5022099;28;20049;-76
2023/12/04 00:58:44;;;;;;;0.00;0.00;;;0.90;93.00;;;;;;5022582;28;20059;-76
2023/12/04 01:01:10;;;;;;;0.00;0.00;;;1.00;92.90;;;;;;5027464;28;20380;-76
2023/12/04 01:03:35;;;;;;;0.15;0.15;;;1.00;92.80;;;;;;5038664;28;20056;-76
2023/12/04 01:06:01;;;;;;;1.00;0.55;;;0.90;92.80;;;;;;5024377;28;20112;-76
2023/12/04 01:08:26;;;;;;;0.10;0.10;;;1.00;92.80;;;;;;5028932;28;20045;-76
2023/12/04 01:10:52;;;;;;;0.00;0.00;;;1.00;92.80;;;;;;5029116;28;20459;-77
2023/12/04 01:13:18;;;;;;;0.00;0.00;;;1.00;92.70;;;;;;5028292;28;20038;-76
2023/12/04 01:15:46;;;;;;;0.10;0.10;;;1.00;92.70;;;;;;5025593;28;20053;-76
2023/12/04 01:18:11;;;;;;;0.00;0.00;;;1.00;92.70;;;;;;5027424;28;20056;-76
2023/12/04 01:20:37;;;;;;;0.00;0.00;;;1.00;92.50;;;;;;5027398;28;20454;-76
2023/12/04 01:23:03;;;;;;;0.00;0.00;;;0.90;92.60;;;;;;5029357;28;20049;-76
2023/12/04 01:25:28;;;;;;;0.38;0.38;;;0.90;92.80;;;;;;5031574;28;20033;-75
2023/12/04 01:27:54;;;;;;;0.00;0.00;;;1.00;92.80;;;;;;5030330;28;20050;-77
2023/12/04 01:30:19;;;;;;;0.10;0.10;;;1.00;92.70;;;;;;5030907;28;20049;-77
2023/12/04 01:32:45;;;;;;;0.13;0.13;;;1.10;92.70;;;;;;5022966;28;20046;-77
2023/12/04 01:35:11;;;;;;;0.00;0.00;;;1.00;92.70;;;;;;5013057;28;20044;-77
2023/12/04 01:37:38;;;;;;;0.10;0.10;;;1.00;92.80;;;;;;5030808;28;20853;-77
2023/12/04 01:40:06;;;;;;;0.43;0.43;;;1.00;92.70;;;;;;5027515;28;20077;-77
2023/12/04 01:42:32;;;;;;;0.00;0.00;;;1.00;92.70;;;;;;5010056;28;20057;-77
2023/12/04 01:44:57;;;;;;;0.00;0.00;;;1.00;92.50;;;;;;5021406;28;20476;-77
2023/12/04 01:47:24;;;;;;;0.00;0.00;;;0.90;92.70;;;;;;5029896;28;20041;-76
2023/12/04 01:49:50;;;;;;;1.48;1.38;;;1.00;92.80;;;;;;5029412;28;20045;-76
2023/12/04 01:52:16;;;;;;;0.38;0.38;;;1.00;92.80;;;;;;5012522;28;20046;-76
2023/12/04 01:54:42;;;;;;;0.10;0.10;;;1.00;92.60;;;;;;5026800;28;20115;-76
2023/12/04 01:57:09;;;;;;;0.52;0.52;;;1.00;92.60;;;;;;5009933;28;20076;-77
2023/12/04 01:59:36;;;;;;;1.17;0.65;;;1.00;92.60;;;;;;5026430;28;20129;-76
2023/12/04 02:02:02;;;;;;;0.10;0.10;;;0.90;92.40;;;;;;5023884;28;20052;-77
2023/12/04 02:04:27;;;;;;;0.00;0.00;;;0.90;92.70;;;;;;5003596;28;20045;-76
2023/12/04 02:06:53;;;;;;;0.17;0.17;;;0.90;92.70;;;;;;5012116;28;20103;-76
2023/12/04 02:09:19;;;;;;;0.00;0.00;;;1.00;92.70;;;;;;5008453;28;20045;-76
2023/12/04 02:11:45;;;;;;;0.00;0.00;;;1.00;92.70;;;;;;4994388;28;20454;-76
2023/12/04 02:14:11;;;;;;;0.00;0.00;;;1.00;92.60;;;;;;5010815;28;20045;-76
2023/12/04 02:16:41;;;;;;;1.52;0.93;;;1.10;92.70;;;;;;5010699;28;20048;-76
2023/12/04 02:19:12;;;;;;;0.00;0.00;;;1.10;92.70;;;;;;5023519;28;20057;-76
2023/12/04 02:21:37;;;;;;;1.42;1.33;;;1.10;92.60;;;;;;5008766;28;20528;-76
2023/12/04 02:24:03;;;;;;;2.53;1.95;;;1.10;92.50;;;;;;5010980;28;20044;-76
2023/12/04 02:26:34;;;;;;;0.08;0.08;;;1.10;92.50;;;;;;5029394;28;20154;-76
2023/12/04 02:29:07;;;;;;;0.20;0.20;;;1.10;92.50;;;;;;4993335;28;20068;-75
2023/12/04 02:31:36;;;;;;;0.00;0.00;;;1.20;92.50;;;;;;5015952;28;20495;-76
2023/12/04 02:34:06;;;;;;;0.00;0.00;;;1.10;92.30;;;;;;5023814;28;20041;-76
2023/12/04 02:36:32;;;;;;;0.10;0.10;;;1.00;92.30;;;;;;5025681;28;20041;-76
2023/12/04 02:38:58;;;;;;;0.38;0.38;;;1.10;92.50;;;;;;5013079;28;20045;-76
2023/12/04 02:41:24;;;;;;;1.80;1.02;;;1.10;92.30;;;;;;5013044;28;20053;-76
2023/12/04 02:43:50;;;;;;;2.63;0.90;;;1.10;92.20;;;;;;5013288;28;20103;-76
2023/12/04 02:46:15;;;;;;;0.00;0.00;;;1.10;92.20;;;;;;5029614;28;20049;-77
2023/12/04 02:48:41;;;;;;;3.30;1.13;;;1.10;92.30;;;;;;5005429;28;20112;-76
2023/12/04 02:51:07;;;;;;;1.70;0.77;;;1.10;92.20;;;;;;4997284;28;21104;-76
2023/12/04 02:53:32;;;;;;;0.98;0.95;;;1.10;92.10;;;;;;5013918;28;20054;-76
2023/12/04 02:55:58;;;;;;;0.65;0.45;;;1.10;92.20;;;;;;5001402;28;20479;-76
2023/12/04 02:58:24;;;;;;;0.73;0.73;;;1.10;92.20;;;;;;5013790;28;20101;-76
2023/12/04 03:00:49;;;;;;;0.10;0.10;;;1.20;92.20;;;;;;5027827;28;20042;-76
2023/12/04 03:03:15;;;;;;;0.03;0.03;;;1.20;92.20;;;;;;5030774;28;20049;-76
2023/12/04 03:05:41;;;;;;;4.03;1.08;;;1.20;92.10;;;;;;5018079;28;20050;-77
2023/12/04 03:08:06;;;;;;;0.05;0.05;;;1.20;91.70;;;;;;4997523;28;20063;-76
2023/12/04 03:10:32;;;;;;;0.85;0.85;;;1.20;92.00;;;;;;5032230;28;20053;-76
2023/12/04 03:12:57;;;;;;;0.77;0.77;;;1.10;91.80;;;;;;5031907;28;20137;-76
2023/12/04 03:15:23;;;;;;;0.10;0.10;;;1.10;91.90;;;;;;4998257;28;20503;-77
2023/12/04 03:17:49;;;;;;;1.70;1.58;;;1.20;92.00;;;;;;5030308;28;20034;-76
2023/12/04 03:20:14;;;;;;;0.05;0.05;;;1.20;91.50;;;;;;5013943;28;20087;-76
2023/12/04 03:22:40;;;;;;;0.17;0.17;;;1.20;91.80;;;;;;5031696;28;20053;-76
2023/12/04 03:25:06;;;;;;;0.00;0.00;;;1.20;91.80;;;;;;5013690;28;20045;-77
2023/12/04 03:27:31;;;;;;;0.25;0.25;;;1.20;91.80;;;;;;5013262;28;20115;-77
2023/12/04 03:29:57;;;;;;;0.00;0.00;;;1.20;91.90;;;;;;5024904;28;20050;-76
2023/12/04 03:32:23;;;;;;;0.00;0.00;;;1.20;91.90;;;;;;5002941;28;20103;-76
2023/12/04 03:34:48;;;;;;;0.20;0.20;;;1.30;91.80;;;;;;5008806;28;21273;-77
2023/12/04 03:37:14;;;;;;;0.10;0.10;;;1.30;91.70;;;;;;5031352;28;20124;-76
2023/12/04 03:39:39;;;;;;;0.00;0.00;;;1.30;91.70;;;;;;5031706;28;20078;-77
2023/12/04 03:42:05;;;;;;;0.00;0.00;;;1.30;91.60;;;;;;5038837;28;20164;-76
2023/12/04 03:44:31;;;;;;;0.00;0.00;;;1.30;91.40;;;;;;5030710;28;20473;-76
2023/12/04 03:46:56;;;;;;;0.20;0.20;;;1.30;91.60;;;;;;5028781;28;20049;-76
2023/12/04 03:49:22;;;;;;;0.28;0.28;;;1.30;91.50;;;;;;4994867;28;20053;-76
2023/12/04 03:51:48;;;;;;;0.10;0.10;;;1.20;91.50;;;;;;5015517;28;20136;-76
2023/12/04 03:54:13;;;;;;;0.10;0.10;;;1.20;91.60;;;;;;5019725;28;20419;-76
2023/12/04 03:56:40;;;;;;;0.00;0.00;;;1.20;91.60;;;;;;5017732;28;20510;-76
2023/12/04 03:59:05;;;;;;;0.20;0.20;;;1.30;91.60;;;;;;5001513;28;20085;-76
2023/12/04 04:01:31;;;;;;;0.10;0.10;;;1.40;91.60;;;;;;5037373;28;20833;-76
2023/12/04 04:03:56;;;;;;;0.57;0.57;;;1.40;91.60;;;;;;5044612;28;20083;-77
2023/12/04 04:06:22;;;;;;;0.00;0.00;;;1.40;91.50;;;;;;5028700;28;20045;-76
2023/12/04 04:08:48;;;;;;;0.03;0.03;;;1.40;91.50;;;;;;5027313;28;20045;-76
2023/12/04 04:11:13;;;;;;;0.20;0.20;;;1.40;91.50;;;;;;5016697;28;20049;-77
2023/12/04 04:13:39;;;;;;;0.00;0.00;;;1.40;91.20;;;;;;5006420;28;20508;-76
2023/12/04 04:16:05;;;;;;;0.10;0.10;;;1.30;91.20;;;;;;5003715;28;20049;-76
2023/12/04 04:18:31;;;;;;;2.08;1.00;;;1.30;91.20;;;;;;5009669;28;20049;-76
2023/12/04 04:20:56;;;;;;;0.08;0.08;;;1.20;91.20;;;;;;5025767;28;20042;-76
2023/12/04 04:23:22;;;;;;;0.00;0.00;;;1.20;91.00;;;;;;5005503;28;20128;-76
2023/12/04 04:25:48;;;;;;;1.23;0.95;;;1.20;91.20;;;;;;5026439;28;20045;-76
2023/12/04 04:28:13;;;;;;;0.10;0.10;;;1.30;91.30;;;;;;5006031;28;20135;-76
2023/12/04 04:30:40;;;;;;;0.20;0.20;;;1.30;91.20;;;;;;5024067;28;20131;-76
2023/12/04 04:33:05;;;;;;;0.63;0.55;;;1.30;91.20;;;;;;5025279;28;20037;-76
2023/12/04 04:35:31;;;;;;;0.03;0.03;;;1.40;91.10;;;;;;5026101;28;20488;-76
2023/12/04 04:37:57;;;;;;;0.20;0.20;;;1.30;91.10;;;;;;5010645;28;20056;-76
2023/12/04 04:40:22;;;;;;;0.00;0.00;;;1.30;90.90;;;;;;5005577;28;20041;-75
2023/12/04 04:42:48;;;;;;;0.70;0.70;;;1.30;91.00;;;;;;5025716;28;20096;-76
2023/12/04 04:45:14;;;;;;;0.00;0.00;;;1.30;90.80;;;;;;5023293;28;20098;-76
2023/12/04 04:47:39;;;;;;;0.10;0.10;;;1.30;91.00;;;;;;5028919;28;20049;-76
2023/12/04 04:50:06;;;;;;;0.10;0.10;;;1.30;91.00;;;;;;5008649;28;20497;-76
2023/12/04 04:52:31;;;;;;;0.00;0.00;;;1.30;90.90;;;;;;5010730;28;20046;-76
2023/12/04 04:54:57;;;;;;;0.00;0.00;;;1.30;91.10;;;;;;5008868;28;20040;-76
2023/12/04 04:57:22;;;;;;;0.00;0.00;;;1.40;91.00;;;;;;5005399;28;20502;-76
2023/12/04 04:59:48;;;;;;;0.38;0.38;;;1.30;90.80;;;;;;4997970;28;20053;-76
2023/12/04 05:02:13;;;;;;;0.00;0.00;;;1.30;90.60;;;;;;5008500;28;20907;-73
2023/12/04 05:04:39;;;;;;;0.45;0.45;;;1.30;90.70;;;;;;5019220;28;20804;-73
2023/12/04 05:07:05;;;;;;;0.15;0.15;;;1.30;90.80;;;;;;5026826;28;20429;-77
2023/12/04 05:09:30;;;;;;;0.08;0.08;;;1.30;90.90;;;;;;5023306;28;20045;-77
2023/12/04 05:11:56;;;;;;;0.10;0.10;;;1.30;90.90;;;;;;5007483;28;20141;-77
2023/12/04 05:14:21;;;;;;;0.00;0.00;;;1.30;90.90;;;;;;5016951;28;20068;-77
2023/12/04 05:16:47;;;;;;;0.20;0.20;;;1.20;90.80;;;;;;5036496;28;20068;-77
2023/12/04 05:19:13;;;;;;;0.35;0.35;;;1.30;90.90;;;;;;5029152;28;20137;-76
2023/12/04 05:21:38;;;;;;;0.10;0.10;;;1.30;90.80;;;;;;5028376;28;20836;-77
2023/12/04 05:24:04;;;;;;;0.00;0.00;;;1.30;90.70;;;;;;5008198;28;20102;-76
2023/12/04 05:26:29;;;;;;;0.10;0.10;;;1.40;90.80;;;;;;5013647;28;20064;-77
2023/12/04 05:28:55;;;;;;;0.00;0.00;;;1.30;90.60;;;;;;5013049;28;20053;-77
2023/12/04 05:31:21;;;;;;;0.10;0.10;;;1.30;90.60;;;;;;5040952;28;20045;-77
2023/12/04 05:33:46;;;;;;;0.10;0.10;;;1.40;90.70;;;;;;5025582;28;20038;-76
2023/12/04 05:36:12;;;;;;;0.00;0.00;;;1.40;90.60;;;;;;5017069;28;20042;-77
2023/12/04 05:38:37;;;;;;;0.00;0.00;;;1.30;90.20;;;;;;5000746;28;20114;-77
2023/12/04 05:41:03;;;;;;;0.40;0.40;;;1.30;90.40;;;;;;5015436;28;20069;-77
2023/12/04 05:43:29;;;;;;;0.10;0.10;;;1.30;90.50;;;;;;5013551;28;20053;-77
2023/12/04 05:45:54;;;;;;;0.00;0.00;;;1.30;90.50;;;;;;5011542;28;20083;-76
2023/12/04 05:48:20;;;;;;;0.40;0.40;;;1.30;90.40;;;;;;5003348;28;20038;-76
2023/12/04 05:50:46;;;;;;;0.00;0.00;;;1.30;90.30;;;;;;4994521;28;20051;-76
2023/12/04 05:53:11;;;;;;;0.10;0.10;;;1.30;90.40;;;;;;5005657;28;20102;-77
2023/12/04 05:55:37;;;;;;;0.05;0.05;;;1.30;90.00;;;;;;5026440;28;20415;-76
2023/12/04 05:58:02;;;;;;;0.05;0.05;;;1.30;90.20;;;;;;5025963;28;20443;-77
2023/12/04 06:00:28;;;;;;;0.00;0.00;;;1.30;90.20;;;;;;5005798;28;20476;-76
2023/12/04 06:02:54;;;;;;;0.10;0.10;;;1.30;90.30;;;;;;5004379;28;20109;-77
2023/12/04 06:05:19;;;;;;;0.10;0.10;;;1.40;90.30;;;;;;4997942;28;20507;-77
2023/12/04 06:07:45;;;;;;;0.00;0.00;;;1.40;90.20;;;;;;5021091;28;20061;-75
2023/12/04 06:10:10;;;;;;;0.10;0.10;;;1.40;90.20;;;;;;4999572;28;20088;-76
2023/12/04 06:12:36;;;;;;;0.00;0.00;;;1.50;90.20;;;;;;4998386;28;20492;-77
2023/12/04 06:15:03;;;;;;;0.45;0.45;;;1.50;90.00;;;;;;5007222;28;20045;-76
2023/12/04 06:17:29;;;;;;;0.00;0.00;;;1.50;89.80;;;;;;5029591;28;20661;-75
2023/12/04 06:19:54;;;;;;;0.00;0.00;;;1.50;89.80;;;;;;5013364;28;20045;-77
2023/12/04 06:22:21;;;;;;;0.20;0.20;;;1.60;90.00;;;;;;5026584;28;20174;-77
2023/12/04 06:24:48;;;;;;;0.68;0.68;;;1.60;89.90;;;;;;5020867;28;20050;-77
2023/12/04 06:27:21;;;;;;;0.10;0.10;;;1.60;89.80;;;;;;5008050;28;20053;-77
2023/12/04 06:29:48;;;;;;;0.17;0.17;;;1.60;89.70;;;;;;5019097;28;20141;-77
2023/12/04 06:32:14;;;;;;;7.88;3.40;;;1.50;89.40;;;;;;5011864;28;20058;-77
2023/12/04 06:34:41;;;;;;;0.40;0.40;;;1.50;89.60;;;;;;5027340;28;20049;-76
2023/12/04 06:37:11;;;;;;;0.00;0.00;;;1.60;89.70;;;;;;5019994;28;20468;-75
2023/12/04 06:39:38;;;;;;;0.00;0.00;;;1.60;89.60;;;;;;5006345;28;20103;-73
2023/12/04 06:42:05;;;;;;;0.10;0.10;;;1.60;89.70;;;;;;5020949;28;20056;-74
2023/12/04 06:44:31;;;;;;;1.85;1.75;;;1.60;89.60;;;;;;5006073;28;20049;-74
2023/12/04 06:47:02;;;;;;;0.00;0.00;;;1.60;89.60;;;;;;4997434;28;20068;-77
2023/12/04 06:49:32;;;;;;;0.10;0.10;;;1.60;89.50;;;;;;4995198;28;20042;-77
2023/12/04 06:51:58;;;;;;;0.75;0.75;;;1.70;89.60;;;;;;4997923;28;20058;-77
2023/12/04 06:54:24;;;;;;;0.00;0.00;;;1.60;89.50;;;;;;5012926;28;20049;-75
2023/12/04 06:56:50;;;;;;;0.00;0.00;;;1.70;89.50;;;;;;5004596;28;20415;-76
2023/12/04 06:59:17;;;;;;;0.00;0.00;;;1.60;89.30;;;;;;5016195;28;20045;-75
2023/12/04 07:01:42;;;;;;;0.20;0.20;;;1.60;89.20;;;;;;5007967;28;20132;-75
2023/12/04 07:04:09;;;;;;;0.00;0.00;;;1.60;89.10;;;;;;5033344;28;20128;-75
2023/12/04 07:06:42;;;;;;;0.00;0.00;;;1.60;89.00;;;;;;5002267;28;20057;-77
2023/12/04 07:09:08;;;;;;;0.00;0.00;;;1.60;89.20;;;;;;4992469;28;20052;-77
2023/12/04 07:11:34;;;;;;;0.10;0.10;;;1.60;89.20;;;;;;5006030;28;20057;-77
2023/12/04 07:13:59;;;;;;;0.00;0.00;;;1.70;89.20;;;;;;5000398;28;20048;-70
2023/12/04 07:16:25;;;;;;;0.00;0.00;;;1.70;89.10;;;;;;5015649;28;20049;-71
2023/12/04 07:18:51;;;;;;;0.00;0.00;;;3.80;96.40;;;;;;5006957;28;20033;-74
2023/12/04 07:21:16;;;;;;;0.10;0.10;;;4.10;95.70;;;;;;5006747;28;20046;-73
2023/12/04 07:23:42;;;;;;;0.00;0.00;;;3.60;92.30;;;;;;5008275;28;20500;-73
2023/12/04 07:26:08;;;;;;;1.88;1.70;;;3.10;91.30;;;;;;5025757;28;20049;-74
2023/12/04 07:28:34;;;;;;;0.40;0.35;;;2.70;90.60;;;;;;5025771;28;20064;-73
2023/12/04 07:31:01;;;;;;;0.00;0.00;;;2.50;90.40;;;;;;5009322;28;20057;-74
2023/12/04 07:33:27;;;;;;;0.00;0.00;;;2.40;89.90;;;;;;5010214;28;20053;-75
2023/12/04 07:35:53;;;;;;;0.00;0.00;;;2.20;89.10;;;;;;5010067;28;20481;-75
2023/12/04 07:38:18;;;;;;;0.10;0.10;;;2.00;89.20;;;;;;5027133;28;20037;-75
2023/12/04 07:40:45;;;;;;;0.50;0.50;;;1.90;88.80;;;;;;5007405;28;20128;-72
2023/12/04 07:43:11;;;;;;;0.10;0.10;;;1.80;88.80;;;;;;5003647;28;20487;-72
2023/12/04 07:45:36;;;;;;;0.00;0.00;;;1.70;88.20;;;;;;5017769;28;20048;-72
2023/12/04 07:48:04;;;;;;;0.10;0.10;;;1.80;88.60;;;;;;5016544;28;20813;-73
2023/12/04 07:50:29;;;;;;;0.00;0.00;;;1.60;88.30;;;;;;5014734;28;20050;-73
2023/12/04 07:52:55;;;;;;;0.00;0.00;;;1.50;88.00;;;;;;5025181;28;20042;-73
2023/12/04 07:55:21;;;;;;;0.10;0.10;;;1.50;88.10;;;;;;5027171;28;20132;-73
2023/12/04 07:57:47;;;;;;;0.45;0.45;;;1.50;88.30;;;;;;5026805;28;20099;-73
2023/12/04 08:00:14;;;;;;;0.25;0.25;;;1.60;88.10;;;;;;5009694;28;20049;-73
2023/12/04 08:02:39;;;;;;;0.00;0.00;;;1.70;88.50;;;;;;5017419;28;20042;-74
2023/12/04 08:05:06;;;;;;;0.65;0.65;;;1.60;88.20;;;;;;5013885;28;20466;-74
2023/12/04 08:07:32;;;;;;;0.20;0.20;;;1.60;88.00;;;;;;5018576;28;20060;-74
2023/12/04 08:09:57;;;;;;;0.00;0.00;;;1.50;87.90;;;;;;5024957;28;20041;-74
2023/12/04 08:12:23;;;;;;;0.03;0.03;;;1.60;88.10;;;;;;5024819;28;20584;-74
2023/12/04 08:14:48;;;;;;;0.00;0.00;;;1.70;88.20;;;;;;5011011;28;20459;-74
2023/12/04 08:17:14;;;;;;;0.00;0.00;;;1.70;88.40;;;;;;5014549;28;20052;-74
2023/12/04 08:19:40;;;;;;;0.20;0.20;;;1.60;87.90;;;;;;5005459;28;20496;-74
2023/12/04 08:22:05;;;;;;;0.00;0.00;;;1.70;88.20;;;;;;5019803;28;20077;-74
2023/12/04 08:24:31;;;;;;;0.30;0.30;;;1.60;87.60;;;;;;5026802;28;20045;-74
2023/12/04 08:26:57;;;;;;;0.10;0.10;;;1.60;87.70;;;;;;5018537;28;20058;-74
2023/12/04 08:29:23;;;;;;;0.00;0.00;;;1.70;87.70;;;;;;4994092;28;20066;-74
2023/12/04 08:31:48;;;;;;;0.55;0.55;;;1.70;87.80;;;;;;5019729;28;20045;-74
2023/12/04 08:34:15;;;;;;;0.10;0.10;;;1.70;87.70;;;;;;5026946;28;20144;-75
2023/12/04 08:36:41;;;;;;;0.20;0.20;;;1.70;87.50;;;;;;5009631;28;20045;-74
2023/12/04 08:39:06;;;;;;;0.00;0.00;;;1.70;87.50;;;;;;5017996;28;20056;-74
2023/12/04 08:41:32;;;;;;;0.00;0.00;;;1.80;87.60;;;;;;5019037;28;20397;-69
2023/12/04 08:43:58;;;;;;;0.10;0.10;;;1.80;87.40;;;;;;5017809;28;20042;-76
2023/12/04 08:46:24;;;;;;;0.00;0.00;;;1.90;87.50;;;;;;4997949;28;20034;-76
2023/12/04 08:48:49;;;;;;;0.00;0.00;;;1.90;87.50;;;;;;5005432;28;20099;-76
2023/12/04 08:51:18;;;;;;;0.47;0.47;;;2.00;87.50;;;;;;5028914;28;20056;-76
2023/12/04 08:53:44;;;;;;;0.00;0.00;;;2.00;87.10;;;;;;4994125;28;20632;-76
2023/12/04 08:56:10;;;;;;;0.00;0.00;;;1.80;85.60;;;;;;5014493;28;20077;-74
2023/12/04 08:58:36;;;;;;;0.00;0.00;;;1.90;86.70;;;;;;5023580;28;20431;-75
2023/12/04 09:01:03;;;;;;;0.00;0.00;;;2.60;91.10;;;;;;5030829;28;20051;-76
2023/12/04 09:03:32;;;;;;;0.00;0.00;;;2.60;87.90;;;;;;5022746;28;20545;-74
2023/12/04 09:05:58;;;;;;;0.00;0.00;;;2.60;88.10;;;;;;5019738;28;20033;-73
2023/12/04 09:08:25;;;;;;;0.65;0.57;;;2.40;87.20;;;;;;5031447;28;20407;-74
2023/12/04 09:10:51;;;;;;;0.00;0.00;;;2.40;87.20;;;;;;5043507;28;20077;-73
2023/12/04 09:13:17;;;;;;;0.00;0.00;;;2.30;86.30;;;;;;5028955;28;20529;-73
2023/12/04 09:15:42;;;;;;;0.20;0.20;;;2.20;86.60;;;;;;5026298;28;20148;-74
2023/12/04 09:18:08;;;;;;;0.00;0.00;;;2.30;86.70;;;;;;5030725;28;20821;-74
2023/12/04 09:20:34;;;;;;;0.00;0.00;;;2.20;86.20;;;;;;5022517;28;20073;-74
2023/12/04 09:22:59;;;;;;;0.08;0.08;;;2.20;86.40;;;;;;5028604;28;20048;-74
2023/12/04 09:25:25;;;;;;;0.00;0.00;;;2.20;86.20;;;;;;5029691;28;20045;-74
2023/12/04 09:27:51;;;;;;;0.85;0.85;;;2.20;86.40;;;;;;5008887;28;20065;-74
2023/12/04 09:30:18;;;;;;;2.97;1.27;;;2.20;85.80;;;;;;5029641;28;21038;-74
2023/12/04 09:32:43;;;;;;;0.00;0.00;;;2.20;86.10;;;;;;5011322;28;20049;-73
2023/12/04 09:35:09;;;;;;;0.32;0.32;;;2.10;86.00;;;;;;5022936;28;20120;-74
2023/12/04 09:37:34;;;;;;;0.10;0.10;;;2.10;86.20;;;;;;5022219;28;20048;-74
2023/12/04 09:40:00;;;;;;;0.00;0.00;;;2.10;86.20;;;;;;5022264;28;20491;-75
2023/12/04 09:42:26;;;;;;;0.00;0.00;;;2.00;86.00;;;;;;5027149;28;20064;-76
2023/12/04 09:44:52;;;;;;;0.00;0.00;;;2.00;85.60;;;;;;5030086;28;20221;-75
2023/12/04 09:47:18;;;;;;;0.00;0.00;;;2.00;85.60;;;;;;5008459;28;20133;-75
2023/12/04 09:49:45;;;;;;;0.10;0.10;;;1.90;85.40;;;;;;5026152;28;20107;-75
2023/12/04 09:52:11;;;;;;;0.00;0.00;;;2.00;85.60;;;;;;5025089;28;20041;-75
2023/12/04 09:54:38;;;;;;;0.00;0.00;;;2.00;85.60;;;;;;5018294;28;20882;-75
2023/12/04 09:57:05;;;;;;;0.10;0.10;;;2.10;85.80;;;;;;5027877;28;20380;-75
2023/12/04 09:59:30;;;;;;;0.00;0.00;;;2.10;85.80;;;;;;5024002;28;20485;-75
2023/12/04 10:01:57;;;;;;;0.10;0.10;;;2.20;86.00;;;;;;5026318;28;20133;-73
2023/12/04 10:04:24;;;;;;;0.00;0.00;;;2.10;85.40;;;;;;5015079;28;20046;-75
2023/12/04 10:06:52;;;;;;;0.00;0.00;;;2.10;85.10;;;;;;5032217;28;20577;-75
2023/12/04 10:09:19;;;;;;;2.85;1.17;;;2.20;85.30;;;;;;5027131;28;20049;-74
2023/12/04 10:11:45;;;;;;;0.00;0.00;;;2.20;85.60;;;;;;5024118;28;20042;-73
2023/12/04 10:14:17;;;;;;;0.10;0.10;;;2.40;85.80;;;;;;5023688;28;20120;-74
2023/12/04 10:16:42;;;;;;;0.00;0.00;;;2.40;85.20;;;;;;5028808;28;20041;-74
2023/12/04 10:19:20;;;;;;;0.28;0.22;;;2.50;85.20;;;;;;5028915;28;20052;-74
2023/12/04 10:21:47;;;;;;;0.22;0.22;;;2.60;85.20;;;;;;5030951;28;20045;-74
2023/12/04 10:24:26;;;;;;;0.00;0.00;;;2.60;85.30;;;;;;5024172;28;20428;-75
2023/12/04 10:26:52;;;;;;;0.00;0.00;;;2.60;85.30;;;;;;5023404;28;20120;-73
2023/12/04 10:29:18;;;;;;;0.00;0.00;;;2.60;83.70;;;;;;5017312;28;20595;-75
2023/12/04 10:31:43;;;;;;;0.00;0.00;;;2.60;83.90;;;;;;5023141;28;20045;-74
2023/12/04 10:34:12;;;;;;;0.00;0.00;;;2.60;84.10;;;;;;5027224;28;20111;-77
2023/12/04 10:36:38;;;;;;;0.05;0.05;;;2.70;83.80;;;;;;5028677;28;20715;-72
2023/12/04 10:39:06;;;;;;;0.00;0.00;;;2.70;83.90;;;;;;5017250;28;20046;-76
2023/12/04 10:41:32;;;;;;;0.00;0.00;;;2.70;83.90;;;;;;5017155;28;20041;-69
2023/12/04 10:44:00;;;;;;;0.13;0.13;;;3.90;92.50;;;;;;5023283;28;20052;-75
2023/12/04 10:46:27;;;;;;;0.00;0.00;;;4.90;90.00;;;;;;5030453;28;20041;-74
2023/12/04 10:48:52;;;;;;;0.10;0.10;;;4.70;88.80;;;;;;5024446;28;20042;-75
2023/12/04 10:51:19;;;;;;;0.00;0.00;;;4.40;87.70;;;;;;5031274;28;20072;-75
2023/12/04 10:53:45;;;;;;;0.10;0.10;;;4.10;84.90;;;;;;5014104;28;20081;-75
2023/12/04 10:56:18;;;;;;;0.00;0.00;;;3.80;83.40;;;;;;5031163;28;20507;-75
2023/12/04 10:58:46;;;;;;;0.00;0.00;;;3.60;84.10;;;;;;5012548;28;20042;-75
2023/12/04 11:01:13;;;;;;;2.20;0.80;;;3.50;83.80;;;;;;5023610;28;20492;-75
2023/12/04 11:03:44;;;;;;;1.00;1.00;;;3.40;83.60;;;;;;5022945;28;20491;-74
2023/12/04 11:06:12;;;;;;;0.10;0.10;;;3.20;82.80;;;;;;5023610;28;20057;-75
2023/12/04 11:08:41;;;;;;;0.10;0.10;;;3.20;83.20;;;;;;5016711;28;20041;-75
2023/12/04 11:11:12;;;;;;;0.00;0.00;;;3.20;83.80;;;;;;5021815;28;20049;-74
2023/12/04 11:13:42;;;;;;;0.00;0.00;;;3.20;82.90;;;;;;5025400;28;20049;-74
2023/12/04 11:16:28;;;;;;;0.00;0.00;;;3.10;82.90;;;;;;5021538;28;20045;-76
2023/12/04 11:19:32;;;;;;;0.00;0.00;;;3.10;83.10;;;;;;5024873;28;20139;-76
2023/12/04 11:22:02;;;;;;;0.00;0.00;;;3.10;83.00;;;;;;4999409;28;20057;-76
2023/12/04 11:24:27;;;;;;;0.08;0.08;;;3.10;83.20;;;;;;5000753;28;20041;-76
2023/12/04 11:26:54;;;;;;;0.10;0.10;;;3.10;83.10;;;;;;5028446;28;20087;-74
2023/12/04 11:29:21;;;;;;;0.40;0.40;;;3.10;83.00;;;;;;5007493;28;20411;-71
2023/12/04 11:31:47;;;;;;;0.00;0.00;;;3.10;82.50;;;;;;5025057;28;20172;-75
2023/12/04 11:34:13;;;;;;;1.17;1.08;;;3.10;82.30;;;;;;5024474;28;20041;-76
2023/12/04 11:36:39;;;;;;;0.10;0.10;;;3.10;82.10;;;;;;5023410;28;20056;-76
2023/12/04 11:39:12;;;;;;;0.10;0.10;;;3.10;82.20;;;;;;5023483;28;20037;-76
2023/12/04 11:41:40;;;;;;;0.00;0.00;;;3.10;81.80;;;;;;5009729;28;20058;-76
2023/12/04 11:44:15;;;;;;;0.00;0.00;;;3.10;81.60;;;;;;5011823;28;20059;-76
2023/12/04 11:46:56;;;;;;;0.00;0.00;;;3.10;81.80;;;;;;5019437;28;20124;-75
2023/12/04 11:49:31;;;;;;;0.00;0.00;;;3.10;82.60;;;;;;5023087;28;20045;-74
2023/12/04 11:52:04;;;;;;;0.00;0.00;;;3.20;82.80;;;;;;5027018;28;20049;-75
2023/12/04 11:54:56;;;;;;;0.00;0.00;;;3.20;82.80;;;;;;5024330;28;20838;-76
2023/12/04 11:57:24;;;;;;;1.88;1.48;;;3.20;83.20;;;;;;5023848;28;20065;-77
2023/12/04 11:59:49;;;;;;;0.00;0.00;;;3.10;82.60;;;;;;5026078;28;20142;-75
2023/12/04 12:02:16;;;;;;;0.20;0.20;;;3.10;83.00;;;;;;5009202;28;20492;-74
2023/12/04 12:04:41;;;;;;;0.15;0.15;;;3.10;83.00;;;;;;5026331;28;20053;-75
2023/12/04 12:07:07;;;;;;;0.00;0.00;;;3.10;82.90;;;;;;5009200;28;20102;-76
2023/12/04 12:09:34;;;;;;;0.10;0.10;;;3.10;82.90;;;;;;5019436;28;20046;-74
2023/12/04 12:12:01;;;;;;;0.10;0.10;;;3.10;83.00;;;;;;5002301;28;20452;-74
2023/12/04 12:14:28;;;;;;;0.00;0.00;;;3.10;82.90;;;;;;5023360;28;20072;-75
2023/12/04 12:17:03;;;;;;;0.20;0.20;;;3.10;82.90;;;;;;5018798;28;20564;-75
2023/12/04 12:19:29;;;;;;;0.10;0.10;;;4.70;86.10;;;;;;5026039;28;20048;-77
2023/12/04 12:21:55;;;;;;;0.00;0.00;;;4.30;84.40;;;;;;5022353;28;20515;-76
2023/12/04 12:24:20;;;;;;;0.00;0.00;;;4.10;84.30;;;;;;5024963;28;20104;-77
2023/12/04 12:26:46;;;;;;;0.10;0.10;;;3.90;83.50;;;;;;5006843;28;20792;-77
2023/12/04 12:29:12;;;;;;;0.32;0.32;;;3.70;83.00;;;;;;5024745;28;20050;-77
2023/12/04 12:31:38;;;;;;;0.00;0.00;;;3.60;82.70;;;;;;5004479;28;20054;-76
2023/12/04 12:34:03;;;;;;;0.57;0.57;;;3.60;82.90;;;;;;5007582;28;20507;-77
2023/12/04 12:36:32;;;;;;;0.10;0.10;;;3.60;83.00;;;;;;5022670;28;20060;-76
2023/12/04 12:39:00;;;;;;;0.00;0.00;;;3.40;82.90;;;;;;5023398;28;20107;-76
2023/12/04 12:41:26;;;;;;;0.05;0.05;;;3.40;82.60;;;;;;5024979;28;20071;-76
2023/12/04 12:43:53;;;;;;;0.00;0.00;;;3.30;82.20;;;;;;4989084;28;20045;-76
2023/12/04 12:46:19;;;;;;;0.10;0.10;;;3.20;82.30;;;;;;5024656;28;20152;-77
2023/12/04 12:48:46;;;;;;;0.00;0.00;;;3.20;82.60;;;;;;5023253;28;20049;-76
2023/12/04 12:51:13;;;;;;;0.00;0.00;;;3.20;82.70;;;;;;5022875;28;20060;-74
2023/12/04 12:53:39;;;;;;;0.03;0.03;;;3.20;82.60;;;;;;5019468;28;20538;-76